Time;durP1;ratioP1;P1;durP2;ratioP2;P2;SDS_P1;SDS_P2;PMS_P1;PMS_P2;Temp;Humidity;BMP_temperature;BMP_pressure;BME280_temperature;BME280_humidity;BME280_pressure;Samples;Min_cycle;Max_cycle;Signal;HPM_P1;HPM_P2
2023/10/14 00:01:27;;;;;;;8.40;6.35;;;19.70;92.60;;;;;;5077900;28;20506;-69
2023/10/14 00:03:55;;;;;;;10.55;6.50;;;19.70;92.40;;;;;;5078092;28;20413;-69
2023/10/14 00:06:24;;;;;;;10.43;6.65;;;19.70;92.00;;;;;;5077639;28;20433;-69
2023/10/14 00:08:55;;;;;;;9.93;6.63;;;19.70;91.80;;;;;;5076131;28;20530;-69
2023/10/14 00:11:22;;;;;;;9.10;6.80;;;19.70;91.60;;;;;;5079940;28;20518;-69
2023/10/14 00:13:52;;;;;;;8.00;6.10;;;19.70;91.50;;;;;;5078619;28;20458;-69
2023/10/14 00:16:35;;;;;;;10.33;6.60;;;19.70;91.30;;;;;;5074522;28;20450;-69
2023/10/14 00:19:04;;;;;;;10.40;6.50;;;19.70;91.10;;;;;;5080645;28;20426;-69
2023/10/14 00:21:34;;;;;;;7.93;6.30;;;19.80;90.60;;;;;;5080210;28;20427;-68
2023/10/14 00:24:03;;;;;;;9.35;6.20;;;19.80;90.30;;;;;;5085546;28;20421;-69
2023/10/14 00:26:30;;;;;;;9.35;5.95;;;19.90;90.30;;;;;;5084282;28;20530;-68
2023/10/14 00:29:16;;;;;;;9.73;6.23;;;19.90;90.20;;;;;;5083718;28;20417;-68
2023/10/14 00:31:43;;;;;;;9.48;6.18;;;19.90;90.10;;;;;;5080562;28;20433;-68
2023/10/14 00:34:09;;;;;;;7.82;5.72;;;19.90;90.30;;;;;;5083216;28;20505;-70
2023/10/14 00:36:37;;;;;;;8.20;5.70;;;19.80;90.10;;;;;;5081341;28;20426;-68
2023/10/14 00:39:12;;;;;;;8.05;5.90;;;19.80;90.10;;;;;;5080119;28;21035;-68
2023/10/14 00:41:39;;;;;;;6.35;5.50;;;19.90;89.90;;;;;;5083716;28;20440;-68
2023/10/14 00:44:05;;;;;;;6.00;4.90;;;19.90;89.50;;;;;;5083108;28;20446;-70
2023/10/14 00:46:35;;;;;;;6.80;5.50;;;20.00;88.80;;;;;;5078248;28;20457;-70
2023/10/14 00:49:04;;;;;;;7.18;5.15;;;20.00;89.30;;;;;;5082717;28;20787;-70
2023/10/14 00:51:33;;;;;;;9.05;5.82;;;19.90;90.40;;;;;;5081521;28;20672;-70
2023/10/14 00:54:03;;;;;;;8.38;5.72;;;19.80;92.50;;;;;;5084037;28;20752;-70
2023/10/14 00:56:31;;;;;;;8.27;5.25;;;19.50;93.40;;;;;;5083372;28;20522;-71
2023/10/14 00:59:03;;;;;;;7.93;5.28;;;19.30;93.50;;;;;;5080793;28;20525;-70
2023/10/14 01:01:32;;;;;;;6.32;4.90;;;19.10;94.10;;;;;;5083683;28;20509;-70
2023/10/14 01:04:09;;;;;;;9.75;5.68;;;19.00;96.70;;;;;;5085778;28;20571;-70
2023/10/14 01:06:53;;;;;;;7.32;5.40;;;18.80;96.20;;;;;;5080671;28;20456;-70
2023/10/14 01:09:30;;;;;;;6.70;4.80;;;18.70;96.00;;;;;;5083692;28;20530;-70
2023/10/14 01:11:57;;;;;;;8.68;4.80;;;18.70;95.00;;;;;;5075285;28;20434;-70
2023/10/14 01:14:24;;;;;;;7.65;4.88;;;18.70;94.20;;;;;;5080568;28;20430;-68
2023/10/14 01:16:51;;;;;;;5.07;4.40;;;18.80;93.30;;;;;;5080964;28;20449;-70
2023/10/14 01:19:22;;;;;;;7.50;4.68;;;18.90;93.10;;;;;;5078758;28;20502;-70
2023/10/14 01:21:51;;;;;;;4.93;3.63;;;19.00;94.70;;;;;;5081191;28;20449;-70
2023/10/14 01:24:21;;;;;;;6.18;4.28;;;18.90;94.80;;;;;;5083402;28;20435;-70
2023/10/14 01:26:53;;;;;;;8.40;4.68;;;18.80;94.20;;;;;;5082778;28;20448;-70
2023/10/14 01:29:30;;;;;;;5.70;3.85;;;18.80;93.80;;;;;;5081897;28;20525;-69
2023/10/14 01:32:10;;;;;;;7.93;4.80;;;18.80;93.00;;;;;;5077102;28;20501;-70
2023/10/14 01:34:42;;;;;;;5.15;3.40;;;18.90;92.50;;;;;;5081274;28;20594;-67
2023/10/14 01:37:18;;;;;;;7.15;4.05;;;19.00;94.10;;;;;;5083133;28;20512;-68
2023/10/14 01:39:56;;;;;;;5.30;3.70;;;18.80;97.10;;;;;;5079845;28;20749;-69
2023/10/14 01:42:23;;;;;;;5.90;3.78;;;18.40;99.20;;;;;;5082944;28;20510;-68
2023/10/14 01:44:53;;;;;;;5.88;4.07;;;17.90;99.90;;;;;;5081015;28;20433;-68
2023/10/14 01:47:20;;;;;;;5.97;3.20;;;17.60;99.90;;;;;;5075125;28;20504;-67
2023/10/14 01:49:47;;;;;;;7.05;4.10;;;17.30;99.90;;;;;;5081540;28;20426;-68
2023/10/14 01:52:19;;;;;;;5.20;3.20;;;17.10;99.90;;;;;;5083928;28;20482;-68
2023/10/14 01:54:48;;;;;;;5.13;3.55;;;16.90;99.90;;;;;;5080821;28;20432;-68
2023/10/14 01:57:17;;;;;;;4.70;3.45;;;16.70;99.90;;;;;;5077537;28;20867;-68
2023/10/14 01:59:46;;;;;;;4.97;3.58;;;16.60;99.90;;;;;;5079541;28;20473;-67
2023/10/14 02:02:20;;;;;;;5.38;3.25;;;16.50;99.90;;;;;;5078949;28;20949;-68
2023/10/14 02:04:47;;;;;;;5.10;3.60;;;16.50;99.90;;;;;;5080353;28;20434;-67
2023/10/14 02:07:18;;;;;;;4.55;3.60;;;16.50;99.90;;;;;;5077727;28;20457;-68
2023/10/14 02:09:47;;;;;;;4.15;3.45;;;16.50;99.90;;;;;;5077217;28;20566;-67
2023/10/14 02:12:15;;;;;;;5.03;3.50;;;16.40;99.90;;;;;;5111483;22;20544;-71
2023/10/14 02:14:44;;;;;;;5.60;3.78;;;16.40;99.90;;;;;;5108282;28;20771;-70
2023/10/14 02:17:11;;;;;;;5.03;3.40;;;16.40;99.90;;;;;;5104392;28;20906;-70
2023/10/14 02:19:38;;;;;;;6.30;3.70;;;16.40;99.90;;;;;;5106602;28;20477;-70
2023/10/14 02:22:09;;;;;;;4.85;3.50;;;16.50;99.90;;;;;;5106933;28;20451;-71
2023/10/14 02:24:36;;;;;;;7.90;3.42;;;16.50;99.90;;;;;;5102026;27;20465;-69
2023/10/14 02:27:11;;;;;;;5.47;3.45;;;16.50;99.90;;;;;;5105552;28;20423;-70
2023/10/14 02:29:42;;;;;;;5.25;3.60;;;16.50;99.90;;;;;;5104066;28;20426;-70
2023/10/14 02:32:11;;;;;;;4.35;3.20;;;16.50;99.90;;;;;;5102726;28;20427;-70
2023/10/14 02:34:38;;;;;;;4.87;3.40;;;16.60;99.90;;;;;;5103836;28;20796;-70
2023/10/14 02:37:07;;;;;;;10.50;2.75;;;16.60;99.90;;;;;;5107552;28;20937;-70
2023/10/14 02:39:34;;;;;;;5.30;1.95;;;16.30;99.90;;;;;;5103258;28;20479;-70
2023/10/14 02:42:06;;;;;;;4.00;2.00;;;15.90;99.90;;;;;;5105096;28;20425;-70
2023/10/14 02:44:44;;;;;;;2.75;1.50;;;15.70;99.90;;;;;;5095691;28;20821;-69
2023/10/14 02:47:12;;;;;;;3.33;1.00;;;15.50;99.90;;;;;;5101712;28;20435;-70
2023/10/14 02:49:40;;;;;;;3.40;0.90;;;15.20;99.90;;;;;;5104501;28;20420;-71
2023/10/14 02:52:11;;;;;;;2.00;0.85;;;15.00;99.90;;;;;;5105472;28;20428;-71
2023/10/14 02:54:41;;;;;;;1.73;0.77;;;14.80;99.90;;;;;;5106899;28;20515;-69
2023/10/14 02:57:14;;;;;;;1.60;0.73;;;14.70;99.90;;;;;;5102890;28;20886;-70
2023/10/14 02:59:47;;;;;;;1.60;0.80;;;14.60;99.90;;;;;;5103769;28;20994;-70
2023/10/14 03:02:24;;;;;;;2.20;0.65;;;14.40;99.90;;;;;;5102901;28;20541;-71
2023/10/14 03:05:08;;;;;;;1.45;0.80;;;14.30;99.90;;;;;;5101936;28;20428;-70
2023/10/14 03:07:44;;;;;;;1.70;0.80;;;14.30;99.90;;;;;;5106675;28;20435;-70
2023/10/14 03:10:12;;;;;;;2.45;0.80;;;14.30;99.90;;;;;;5101405;28;20779;-69
2023/10/14 03:12:40;;;;;;;1.83;0.80;;;14.30;99.90;;;;;;5103620;28;20439;-72
2023/10/14 03:15:18;;;;;;;1.40;0.90;;;14.20;99.90;;;;;;5101920;28;20423;-69
2023/10/14 03:17:52;;;;;;;1.60;0.80;;;14.20;99.90;;;;;;5103821;28;20460;-71
2023/10/14 03:23:08;;;;;;;2.17;0.70;;;14.20;99.90;;;;;;5107306;28;20473;-70
2023/10/14 03:25:36;;;;;;;1.35;0.80;;;14.10;99.90;;;;;;5108819;28;20436;-70
2023/10/14 03:28:11;;;;;;;1.70;1.00;;;14.00;99.90;;;;;;5104904;28;20423;-69
2023/10/14 03:30:44;;;;;;;2.40;1.00;;;14.00;99.90;;;;;;5101223;28;20523;-70
2023/10/14 03:33:11;;;;;;;2.00;1.10;;;13.90;99.90;;;;;;5101199;28;20424;-70
2023/10/14 03:35:38;;;;;;;1.30;0.95;;;13.90;99.90;;;;;;5101753;28;20937;-71
2023/10/14 03:38:14;;;;;;;2.72;1.02;;;13.90;99.90;;;;;;5108782;28;20450;-70
2023/10/14 03:41:02;;;;;;;1.90;0.90;;;13.90;99.90;;;;;;5099295;28;20428;-70
2023/10/14 03:43:29;;;;;;;1.35;0.82;;;13.90;99.90;;;;;;5104588;28;20447;-70
2023/10/14 03:46:03;;;;;;;1.17;0.70;;;13.80;99.90;;;;;;5101553;28;21218;-69
2023/10/14 03:48:35;;;;;;;1.85;0.90;;;13.90;99.90;;;;;;5106985;28;20812;-70
2023/10/14 03:51:03;;;;;;;1.85;0.70;;;13.90;99.90;;;;;;5095880;28;20450;-69
2023/10/14 03:53:31;;;;;;;1.80;0.80;;;13.90;99.90;;;;;;5106492;28;20443;-69
2023/10/14 03:55:58;;;;;;;2.70;1.00;;;13.80;99.90;;;;;;5107027;28;20424;-69
2023/10/14 03:58:25;;;;;;;2.22;1.30;;;13.60;99.90;;;;;;5108451;28;20779;-70
2023/10/14 04:00:52;;;;;;;5.25;1.35;;;13.40;99.90;;;;;;5104579;28;20425;-70
2023/10/14 04:03:39;;;;;;;5.10;1.75;;;13.20;99.90;;;;;;5108899;28;20507;-71
2023/10/14 04:06:08;;;;;;;3.00;1.48;;;13.20;99.90;;;;;;5102274;28;20419;-70
2023/10/14 04:08:40;;;;;;;3.60;1.70;;;13.10;99.90;;;;;;5111132;28;20535;-70
2023/10/14 04:11:12;;;;;;;5.43;2.00;;;13.10;99.90;;;;;;5112823;28;20751;-70
2023/10/14 04:13:43;;;;;;;5.35;2.17;;;13.00;99.90;;;;;;5118217;28;20428;-69
2023/10/14 04:16:12;;;;;;;6.60;2.30;;;13.00;99.90;;;;;;5112382;28;20468;-69
2023/10/14 04:18:44;;;;;;;8.55;2.40;;;13.00;99.90;;;;;;5098041;28;20457;-70
2023/10/14 04:21:15;;;;;;;7.95;2.35;;;12.70;99.90;;;;;;5108212;28;20419;-69
2023/10/14 04:23:59;;;;;;;6.95;2.20;;;12.50;99.90;;;;;;5111770;28;20488;-69
2023/10/14 04:26:31;;;;;;;9.33;2.87;;;12.30;99.90;;;;;;5110867;28;20424;-70
2023/10/14 04:28:58;;;;;;;10.32;2.90;;;12.30;99.90;;;;;;5105652;28;20432;-71
2023/10/14 04:31:38;;;;;;;7.95;2.30;;;12.20;99.90;;;;;;5108977;28;20498;-69
2023/10/14 04:34:09;;;;;;;9.68;3.20;;;12.10;99.90;;;;;;5109045;28;20434;-70
2023/10/14 04:36:43;;;;;;;10.73;2.65;;;12.10;99.90;;;;;;5108865;27;20476;-70
2023/10/14 04:39:15;;;;;;;7.28;2.58;;;12.10;99.90;;;;;;5109607;28;20511;-70
2023/10/14 04:44:37;;;;;;;5.72;2.70;;;12.00;99.90;;;;;;5113761;28;20893;-68
2023/10/14 04:47:04;;;;;;;10.15;2.17;;;11.90;99.90;;;;;;5107553;28;20431;-69
2023/10/14 04:49:42;;;;;;;8.98;2.55;;;11.90;99.90;;;;;;5111291;28;20902;-69
2023/10/14 04:52:08;;;;;;;9.13;2.70;;;11.90;99.90;;;;;;5107063;28;20506;-70
2023/10/14 04:54:37;;;;;;;12.88;3.40;;;12.00;99.90;;;;;;5108572;28;20452;-69
2023/10/14 04:57:20;;;;;;;8.63;2.85;;;12.00;99.90;;;;;;5102621;28;20795;-70
2023/10/14 04:59:51;;;;;;;9.05;2.50;;;12.10;99.90;;;;;;5105834;28;20424;-69
2023/10/14 05:02:21;;;;;;;9.90;2.30;;;12.10;99.90;;;;;;5099826;28;20428;-69
2023/10/14 05:04:50;;;;;;;8.90;2.38;;;12.00;99.90;;;;;;5107448;28;20428;-70
2023/10/14 05:07:18;;;;;;;7.25;2.28;;;12.10;99.90;;;;;;5103384;28;20428;-69
2023/10/14 05:09:56;;;;;;;8.32;2.42;;;12.10;99.90;;;;;;5105789;28;20424;-70
2023/10/14 05:12:25;;;;;;;7.32;2.10;;;12.10;99.90;;;;;;5103903;28;20430;-71
2023/10/14 05:14:55;;;;;;;9.32;2.30;;;12.20;99.90;;;;;;5107290;28;20515;-69
2023/10/14 05:17:25;;;;;;;8.00;3.00;;;12.20;99.90;;;;;;5101289;28;20898;-69
2023/10/14 05:19:58;;;;;;;7.47;2.30;;;12.30;99.90;;;;;;5106700;28;20436;-69
2023/10/14 05:22:37;;;;;;;6.10;2.17;;;12.30;99.90;;;;;;5112561;28;20428;-69
2023/10/14 05:25:15;;;;;;;12.27;2.15;;;12.30;99.90;;;;;;5112342;28;20425;-69
2023/10/14 05:27:54;;;;;;;7.90;2.38;;;12.30;99.90;;;;;;5106153;27;20519;-69
2023/10/14 05:30:22;;;;;;;8.75;2.40;;;12.30;99.90;;;;;;5102746;28;20420;-70
2023/10/14 05:32:49;;;;;;;8.52;2.63;;;12.30;99.90;;;;;;5098265;28;20440;-70
2023/10/14 05:35:17;;;;;;;12.32;3.30;;;12.30;99.90;;;;;;5108307;28;20798;-70
2023/10/14 05:37:45;;;;;;;7.70;2.72;;;12.30;99.90;;;;;;5106002;28;20411;-76
2023/10/14 05:40:15;;;;;;;9.00;2.80;;;12.30;99.90;;;;;;5105276;28;20967;-70
2023/10/14 05:42:45;;;;;;;7.95;2.75;;;12.30;99.90;;;;;;5099514;28;20420;-70
2023/10/14 05:45:14;;;;;;;7.77;2.63;;;12.30;99.90;;;;;;5103632;28;20538;-70
2023/10/14 05:47:42;;;;;;;8.17;3.23;;;12.20;99.90;;;;;;5102961;28;20436;-75
2023/10/14 05:50:14;;;;;;;6.45;2.55;;;12.20;99.90;;;;;;5108294;28;20446;-71
2023/10/14 05:52:44;;;;;;;8.25;2.78;;;12.10;99.90;;;;;;5098208;28;20936;-72
2023/10/14 05:55:11;;;;;;;7.55;2.10;;;12.10;99.90;;;;;;5097435;28;20435;-71
2023/10/14 05:57:41;;;;;;;5.38;2.03;;;12.10;99.90;;;;;;5104866;28;20424;-70
2023/10/14 06:00:20;;;;;;;6.93;2.65;;;12.00;99.90;;;;;;5099888;28;20434;-71
2023/10/14 06:02:49;;;;;;;8.20;2.60;;;12.00;99.90;;;;;;5106243;28;20424;-71
2023/10/14 06:05:16;;;;;;;7.32;3.05;;;12.00;99.90;;;;;;5094432;28;20404;-71
2023/10/14 06:07:46;;;;;;;5.43;2.40;;;11.90;99.90;;;;;;5102428;28;20508;-71
2023/10/14 06:10:14;;;;;;;9.43;2.60;;;11.90;99.90;;;;;;5101971;28;20406;-71
2023/10/14 06:12:44;;;;;;;6.20;2.10;;;11.90;99.90;;;;;;5101659;28;20456;-72
2023/10/14 06:15:11;;;;;;;7.60;2.50;;;11.90;99.90;;;;;;5100633;28;20497;-70
2023/10/14 06:17:39;;;;;;;10.13;2.90;;;12.00;99.90;;;;;;5103392;28;20728;-71
2023/10/14 06:20:07;;;;;;;7.55;2.40;;;12.00;99.90;;;;;;5103548;28;20434;-71
2023/10/14 06:22:35;;;;;;;7.23;2.30;;;12.00;99.90;;;;;;5093877;28;20508;-71
2023/10/14 06:25:03;;;;;;;8.45;2.50;;;12.00;99.90;;;;;;5097245;28;20420;-71
2023/10/14 06:27:32;;;;;;;10.35;2.90;;;12.00;99.90;;;;;;5108188;28;20424;-71
2023/10/14 06:29:58;;;;;;;7.95;2.92;;;12.00;99.90;;;;;;5097805;28;20428;-71
2023/10/14 06:32:25;;;;;;;8.85;3.00;;;12.00;99.90;;;;;;5107268;28;20443;-71
2023/10/14 06:34:58;;;;;;;7.30;3.30;;;12.00;99.90;;;;;;5106530;28;20428;-70
2023/10/14 06:37:25;;;;;;;8.43;2.47;;;12.00;99.90;;;;;;5102616;28;20820;-71
2023/10/14 06:39:52;;;;;;;8.13;3.03;;;12.00;99.90;;;;;;5105934;28;20953;-71
2023/10/14 06:42:22;;;;;;;6.68;2.20;;;12.10;99.90;;;;;;5100426;28;20518;-72
2023/10/14 06:44:49;;;;;;;8.57;2.80;;;12.10;99.90;;;;;;5103645;28;20821;-71
2023/10/14 06:47:18;;;;;;;8.27;2.33;;;12.10;99.90;;;;;;5093606;28;20452;-71
2023/10/14 06:49:45;;;;;;;8.07;2.42;;;12.10;99.90;;;;;;5089812;28;20410;-71
2023/10/14 06:52:14;;;;;;;9.27;3.38;;;12.10;99.90;;;;;;5092811;28;20404;-71
2023/10/14 06:54:41;;;;;;;9.13;2.67;;;12.10;99.90;;;;;;5104304;28;20426;-71
2023/10/14 06:57:08;;;;;;;6.03;2.60;;;12.10;99.90;;;;;;5102543;28;20434;-72
2023/10/14 06:59:37;;;;;;;4.40;2.30;;;12.10;99.90;;;;;;5090304;28;20406;-72
2023/10/14 07:02:04;;;;;;;8.52;2.55;;;12.10;99.90;;;;;;5099202;28;20493;-71
2023/10/14 07:04:37;;;;;;;6.28;2.40;;;12.10;99.90;;;;;;5105661;28;20425;-76
2023/10/14 07:07:08;;;;;;;6.43;2.88;;;12.10;99.90;;;;;;5102349;28;20493;-75
2023/10/14 07:09:37;;;;;;;8.77;2.42;;;12.20;99.90;;;;;;5092651;28;20494;-71
2023/10/14 07:12:13;;;;;;;6.68;2.70;;;12.20;99.90;;;;;;5104441;28;20422;-71
2023/10/14 07:14:41;;;;;;;8.35;2.58;;;12.20;99.90;;;;;;5088967;28;20496;-71
2023/10/14 07:17:08;;;;;;;6.03;2.70;;;12.30;99.90;;;;;;5099967;28;20432;-71
2023/10/14 07:19:35;;;;;;;6.82;2.10;;;12.30;99.90;;;;;;5103526;28;20435;-71
2023/10/14 07:22:07;;;;;;;9.18;2.55;;;12.40;99.90;;;;;;5098887;28;20841;-71
2023/10/14 07:24:36;;;;;;;7.80;2.80;;;12.40;99.90;;;;;;5108674;28;20408;-71
2023/10/14 07:27:03;;;;;;;7.93;3.00;;;12.40;99.90;;;;;;5098441;28;20427;-71
2023/10/14 07:29:30;;;;;;;6.97;2.60;;;12.30;99.90;;;;;;5103549;28;20756;-70
2023/10/14 07:31:58;;;;;;;7.50;2.58;;;12.40;99.90;;;;;;5095905;28;20916;-70
2023/10/14 07:34:25;;;;;;;5.28;2.03;;;12.50;99.90;;;;;;5102270;28;20749;-72
2023/10/14 07:36:53;;;;;;;7.65;2.28;;;12.60;99.90;;;;;;5099874;28;20443;-70
2023/10/14 07:39:28;;;;;;;5.93;2.20;;;12.70;99.90;;;;;;5098193;28;20883;-71
2023/10/14 07:41:55;;;;;;;7.25;2.08;;;12.80;99.90;;;;;;5101943;28;20558;-71
2023/10/14 07:44:23;;;;;;;8.52;2.20;;;12.90;99.90;;;;;;5100578;28;20437;-71
2023/10/14 07:46:50;;;;;;;7.88;2.30;;;13.00;99.90;;;;;;5102399;28;20840;-72
2023/10/14 07:49:18;;;;;;;6.28;2.10;;;13.10;99.90;;;;;;5107002;28;20427;-72
2023/10/14 07:51:46;;;;;;;6.13;1.90;;;13.20;99.90;;;;;;5094644;28;20426;-73
2023/10/14 07:54:13;;;;;;;6.68;2.30;;;13.20;99.90;;;;;;5105265;28;20424;-71
2023/10/14 07:56:42;;;;;;;6.18;2.35;;;13.20;99.90;;;;;;5097209;28;20444;-71
2023/10/14 07:59:10;;;;;;;7.68;2.50;;;13.10;99.90;;;;;;5100823;28;20728;-72
2023/10/14 08:01:38;;;;;;;6.57;2.63;;;13.10;99.90;;;;;;5102479;28;20477;-72
2023/10/14 08:04:07;;;;;;;7.10;2.38;;;13.10;99.90;;;;;;5106549;28;20921;-72
2023/10/14 08:06:40;;;;;;;7.90;2.35;;;13.20;99.90;;;;;;5100901;28;20428;-72
2023/10/14 08:09:15;;;;;;;7.40;2.60;;;13.20;99.60;;;;;;5111008;28;20496;-70
2023/10/14 08:11:42;;;;;;;7.60;2.40;;;13.20;99.90;;;;;;5102995;28;20444;-71
2023/10/14 08:14:09;;;;;;;4.25;2.20;;;13.20;98.70;;;;;;5101337;28;20914;-75
2023/10/14 08:16:37;;;;;;;8.07;2.35;;;13.10;98.20;;;;;;5093448;28;20481;-71
2023/10/14 08:19:06;;;;;;;6.70;2.47;;;13.00;98.70;;;;;;5107798;28;20427;-71
2023/10/14 08:24:01;;;;;;;6.97;2.33;;;12.90;99.30;;;;;;5101248;22;20434;-71
2023/10/14 08:26:29;;;;;;;5.60;2.30;;;12.90;99.90;;;;;;5078752;28;20437;-69
2023/10/14 08:29:00;;;;;;;7.40;2.40;;;13.00;99.90;;;;;;5080512;28;20495;-70
2023/10/14 08:31:26;;;;;;;8.88;2.90;;;13.20;99.90;;;;;;5080899;28;20454;-70
2023/10/14 08:33:53;;;;;;;8.05;2.58;;;13.30;98.00;;;;;;5079831;28;20410;-70
2023/10/14 08:36:20;;;;;;;5.90;2.20;;;13.50;97.90;;;;;;5081152;28;20422;-70
2023/10/14 08:38:47;;;;;;;6.47;2.20;;;13.70;97.00;;;;;;5082141;28;20589;-69
2023/10/14 08:41:15;;;;;;;6.97;2.50;;;13.90;96.60;;;;;;5080948;28;20421;-69
2023/10/14 08:43:44;;;;;;;6.90;2.37;;;14.10;96.50;;;;;;5085995;28;20452;-69
2023/10/14 08:46:13;;;;;;;8.63;2.42;;;14.40;95.50;;;;;;5074854;28;20884;-69
2023/10/14 08:48:42;;;;;;;6.75;2.38;;;14.50;93.80;;;;;;5077104;28;20514;-69
2023/10/14 08:51:11;;;;;;;9.45;2.60;;;14.60;93.70;;;;;;5080094;28;20509;-70
2023/10/14 08:53:40;;;;;;;6.60;2.22;;;14.70;91.90;;;;;;5081477;28;20916;-69
2023/10/14 08:56:08;;;;;;;6.32;2.17;;;14.70;91.80;;;;;;5077813;28;20501;-69
2023/10/14 08:58:38;;;;;;;8.27;2.50;;;14.60;92.00;;;;;;5080376;28;20437;-70
2023/10/14 09:01:11;;;;;;;8.38;2.78;;;14.60;92.80;;;;;;5077317;28;20624;-69
2023/10/14 09:03:38;;;;;;;6.72;2.50;;;14.70;91.30;;;;;;5074627;28;20742;-68
2023/10/14 09:06:06;;;;;;;9.43;3.17;;;14.70;91.20;;;;;;5069494;28;20418;-68
2023/10/14 09:08:33;;;;;;;7.10;2.50;;;14.60;91.40;;;;;;5082742;28;20517;-69
2023/10/14 09:11:00;;;;;;;7.50;2.50;;;14.50;92.00;;;;;;5076938;28;20453;-68
2023/10/14 09:13:27;;;;;;;9.67;3.30;;;14.40;91.60;;;;;;5075338;28;20789;-69
2023/10/14 09:15:57;;;;;;;5.93;2.60;;;14.30;92.70;;;;;;5076096;28;20469;-68
2023/10/14 09:18:27;;;;;;;6.55;3.55;;;14.20;92.50;;;;;;5070940;28;20416;-68
2023/10/14 09:20:55;;;;;;;7.70;2.60;;;14.20;92.00;;;;;;5065245;28;20942;-68
2023/10/14 09:23:27;;;;;;;6.70;2.78;;;14.20;92.30;;;;;;5070686;28;20412;-68
2023/10/14 09:25:55;;;;;;;6.97;2.30;;;14.30;92.00;;;;;;5075608;28;20495;-68
2023/10/14 09:28:25;;;;;;;7.40;2.42;;;14.40;91.40;;;;;;5075840;28;20431;-69
2023/10/14 09:30:52;;;;;;;6.07;2.50;;;14.40;91.00;;;;;;5079446;28;20433;-68
2023/10/14 09:33:22;;;;;;;8.95;2.70;;;14.60;91.10;;;;;;5079031;28;20446;-68
2023/10/14 09:35:50;;;;;;;6.25;2.55;;;14.60;90.50;;;;;;5071034;28;20412;-68
2023/10/14 09:38:19;;;;;;;8.93;3.03;;;14.60;90.20;;;;;;5074631;28;20435;-68
2023/10/14 09:40:53;;;;;;;9.00;2.83;;;14.50;90.00;;;;;;5067812;28;20444;-68
2023/10/14 09:43:23;;;;;;;6.80;2.40;;;14.40;90.40;;;;;;5067598;28;20445;-68
2023/10/14 09:45:54;;;;;;;6.97;2.10;;;14.40;90.20;;;;;;5074668;28;20539;-68
2023/10/14 09:48:24;;;;;;;7.57;2.63;;;14.40;90.40;;;;;;5072328;28;21003;-68
2023/10/14 09:50:54;;;;;;;5.05;2.05;;;14.40;90.50;;;;;;5064426;28;20854;-68
2023/10/14 09:53:26;;;;;;;6.87;2.27;;;14.40;89.80;;;;;;5068336;28;20915;-68
2023/10/14 09:55:53;;;;;;;8.43;2.27;;;14.40;90.10;;;;;;5067760;28;20459;-68
2023/10/14 09:58:23;;;;;;;8.70;2.47;;;14.50;90.10;;;;;;5071511;28;20427;-68
2023/10/14 10:00:50;;;;;;;5.65;2.05;;;14.70;88.70;;;;;;5071426;28;20416;-67
2023/10/14 10:03:21;;;;;;;6.90;2.72;;;14.80;85.30;;;;;;5082532;28;20783;-68
2023/10/14 10:06:17;;;;;;;8.68;2.30;;;14.80;85.80;;;;;;5072968;28;20491;-68
2023/10/14 10:08:57;;;;;;;6.70;2.30;;;14.60;83.90;;;;;;5069659;28;20493;-67
2023/10/14 10:11:25;;;;;;;7.90;2.72;;;14.50;84.90;;;;;;5065081;28;20463;-68
2023/10/14 10:13:53;;;;;;;9.70;3.20;;;14.40;86.40;;;;;;5079872;28;20872;-68
2023/10/14 10:16:21;;;;;;;7.60;2.50;;;14.30;86.50;;;;;;5077940;28;20571;-68
2023/10/14 10:18:52;;;;;;;6.80;2.28;;;14.30;86.60;;;;;;5082793;28;20865;-67
2023/10/14 10:21:20;;;;;;;6.15;2.20;;;14.40;85.90;;;;;;5077419;28;20410;-67
2023/10/14 10:23:51;;;;;;;5.95;2.15;;;14.40;85.50;;;;;;5070435;28;20450;-67
2023/10/14 10:26:23;;;;;;;6.95;2.47;;;14.60;85.70;;;;;;5068615;28;20854;-67
2023/10/14 10:28:50;;;;;;;5.77;2.23;;;15.00;85.00;;;;;;5068326;28;20509;-68
2023/10/14 10:31:23;;;;;;;6.50;1.70;;;15.30;80.30;;;;;;5067461;28;20477;-70
2023/10/14 10:33:55;;;;;;;6.90;2.20;;;15.50;77.50;;;;;;5067761;28;20426;-68
2023/10/14 10:36:25;;;;;;;6.07;2.15;;;15.50;76.00;;;;;;5067947;28;20503;-67
2023/10/14 10:38:54;;;;;;;6.47;2.83;;;15.50;74.90;;;;;;5068247;28;20419;-67
2023/10/14 10:41:27;;;;;;;5.32;2.20;;;15.50;75.30;;;;;;5079649;28;20876;-67
2023/10/14 10:44:00;;;;;;;6.57;2.30;;;15.60;75.70;;;;;;5082801;28;20524;-67
2023/10/14 10:46:31;;;;;;;7.50;2.17;;;15.90;76.50;;;;;;5075619;28;20447;-67
2023/10/14 10:48:58;;;;;;;5.43;1.95;;;16.30;75.50;;;;;;5066325;28;20456;-68
2023/10/14 10:51:31;;;;;;;7.30;1.92;;;16.70;70.00;;;;;;5073305;28;20418;-68
2023/10/14 10:54:00;;;;;;;4.78;2.15;;;17.00;66.40;;;;;;5070860;28;20446;-68
2023/10/14 10:56:29;;;;;;;8.02;2.20;;;16.90;70.50;;;;;;5063952;28;20492;-68
2023/10/14 10:58:58;;;;;;;5.72;2.13;;;17.00;66.50;;;;;;5077833;28;20455;-68
2023/10/14 11:01:25;;;;;;;5.90;1.50;;;16.80;65.60;;;;;;5075964;28;20406;-67
2023/10/14 11:03:52;;;;;;;6.60;1.90;;;16.60;64.10;;;;;;5068664;28;20406;-69
2023/10/14 11:06:19;;;;;;;6.32;1.90;;;16.30;67.10;;;;;;5078365;28;20509;-68
2023/10/14 11:08:47;;;;;;;4.90;1.63;;;16.30;71.40;;;;;;5065794;28;20442;-66
2023/10/14 11:11:14;;;;;;;7.40;2.00;;;16.40;63.60;;;;;;5070645;28;20751;-67
2023/10/14 11:13:42;;;;;;;3.90;1.40;;;16.30;64.80;;;;;;5074797;28;21018;-67
2023/10/14 11:16:12;;;;;;;5.63;2.33;;;16.30;66.80;;;;;;5063187;28;20420;-67
2023/10/14 11:18:47;;;;;;;6.75;2.38;;;16.30;69.50;;;;;;5069275;28;20530;-67
2023/10/14 11:21:14;;;;;;;5.75;2.13;;;16.40;65.90;;;;;;5063737;28;20588;-67
2023/10/14 11:23:42;;;;;;;6.60;2.10;;;16.40;68.00;;;;;;5070692;28;20446;-67
2023/10/14 11:26:15;;;;;;;6.83;2.43;;;16.30;64.80;;;;;;5067395;28;20427;-67
2023/10/14 11:28:45;;;;;;;4.83;1.80;;;16.20;64.80;;;;;;5070556;28;20444;-69
2023/10/14 11:31:12;;;;;;;6.03;2.20;;;16.10;62.60;;;;;;5067353;28;20462;-67
2023/10/14 11:33:39;;;;;;;5.80;2.50;;;16.00;70.20;;;;;;5068298;28;20488;-67
2023/10/14 11:36:07;;;;;;;4.57;1.60;;;15.90;64.60;;;;;;5071798;28;20885;-69
2023/10/14 11:38:36;;;;;;;6.45;1.80;;;15.70;62.70;;;;;;5065267;28;20441;-66
2023/10/14 11:41:03;;;;;;;5.68;2.00;;;15.60;64.50;;;;;;5076734;28;20768;-67
2023/10/14 11:43:32;;;;;;;4.13;1.50;;;15.70;63.50;;;;;;5066689;28;20889;-69
2023/10/14 11:45:58;;;;;;;5.10;1.80;;;15.80;64.40;;;;;;5062639;28;20438;-66
2023/10/14 11:48:27;;;;;;;7.20;1.80;;;16.10;62.00;;;;;;5069618;28;20829;-67
2023/10/14 11:50:55;;;;;;;6.70;1.70;;;16.20;59.20;;;;;;5067675;28;20439;-67
2023/10/14 11:53:27;;;;;;;6.78;2.50;;;16.20;58.70;;;;;;5070546;28;20504;-69
2023/10/14 11:55:58;;;;;;;5.05;1.90;;;16.30;60.10;;;;;;5063545;28;20408;-68
2023/10/14 11:58:26;;;;;;;6.43;2.20;;;16.50;58.00;;;;;;5073328;28;20425;-66
2023/10/14 12:00:54;;;;;;;5.43;1.80;;;16.60;58.00;;;;;;5082831;28;20413;-69
2023/10/14 12:03:25;;;;;;;5.40;1.73;;;16.60;57.80;;;;;;5069314;28;20484;-69
2023/10/14 12:05:57;;;;;;;3.60;1.60;;;16.70;57.70;;;;;;5064046;28;20828;-67
2023/10/14 12:08:25;;;;;;;5.53;1.90;;;16.80;58.30;;;;;;5070264;28;20903;-69
2023/10/14 12:10:52;;;;;;;4.93;1.90;;;17.10;56.20;;;;;;5066410;28;20420;-69
2023/10/14 12:13:19;;;;;;;3.78;1.70;;;17.10;55.40;;;;;;5077520;28;20451;-69
2023/10/14 12:15:46;;;;;;;8.02;2.30;;;16.90;56.90;;;;;;5082859;28;20538;-69
2023/10/14 12:18:14;;;;;;;6.70;1.83;;;16.70;58.10;;;;;;5083815;28;20456;-66
2023/10/14 12:20:40;;;;;;;4.10;2.13;;;16.80;58.00;;;;;;5066038;28;20439;-69
2023/10/14 12:23:07;;;;;;;4.63;1.67;;;17.00;56.50;;;;;;5069888;28;20854;-69
2023/10/14 12:25:34;;;;;;;5.82;2.00;;;17.30;57.00;;;;;;5078154;28;20520;-67
2023/10/14 12:28:01;;;;;;;4.97;1.80;;;17.60;55.60;;;;;;5080430;28;20453;-69
2023/10/14 12:30:39;;;;;;;4.20;1.90;;;17.90;51.60;;;;;;5078719;28;20447;-69
2023/10/14 12:33:07;;;;;;;5.97;2.22;;;18.10;53.20;;;;;;5070359;28;20420;-67
2023/10/14 12:35:40;;;;;;;5.10;1.67;;;18.30;49.90;;;;;;5080716;28;20773;-66
2023/10/14 12:38:13;;;;;;;3.53;1.50;;;18.30;49.10;;;;;;5074461;28;20447;-67
2023/10/14 12:40:43;;;;;;;4.13;1.50;;;18.40;49.70;;;;;;5072491;28;20533;-69
2023/10/14 12:43:12;;;;;;;4.40;1.80;;;18.60;48.80;;;;;;5071754;28;20940;-69
2023/10/14 12:45:39;;;;;;;4.43;1.95;;;18.70;47.80;;;;;;5066815;28;20423;-69
2023/10/14 12:48:10;;;;;;;4.82;2.03;;;18.60;48.20;;;;;;5065950;28;20728;-69
2023/10/14 12:50:41;;;;;;;4.60;1.50;;;18.50;47.60;;;;;;5066718;28;20416;-69
2023/10/14 12:53:09;;;;;;;6.07;1.80;;;18.50;48.30;;;;;;5065911;28;20467;-69
2023/10/14 12:55:38;;;;;;;3.58;1.50;;;18.40;47.90;;;;;;5078957;28;20441;-69
2023/10/14 12:58:07;;;;;;;4.20;1.30;;;18.30;47.90;;;;;;5080536;28;20517;-69
2023/10/14 13:00:35;;;;;;;5.40;1.75;;;18.30;49.10;;;;;;5071589;28;20420;-69
2023/10/14 13:03:05;;;;;;;4.97;1.60;;;18.40;48.80;;;;;;5072171;28;20432;-69
2023/10/14 13:05:32;;;;;;;4.57;1.90;;;18.70;52.00;;;;;;5066625;28;21028;-69
2023/10/14 13:08:00;;;;;;;6.27;2.60;;;19.20;49.50;;;;;;5080024;28;20437;-69